createdAt,value
2019-01-03T00:02:47.524Z,101306.81
2019-01-03T00:05:50.028Z,101309.19
2019-01-03T00:08:43.463Z,101309.83
2019-01-03T00:11:56.081Z,101309.65
2019-01-03T00:14:42.616Z,101314.53
2019-01-03T00:17:24.810Z,101310.23
2019-01-03T00:20:23.984Z,101312.30
2019-01-03T00:23:20.427Z,101315.81
2019-01-03T00:26:15.259Z,101324.14
2019-01-03T00:29:11.593Z,101330.24
2019-01-03T00:31:58.068Z,101293.55
2019-01-03T00:34:48.504Z,101331.27
2019-01-03T00:37:41.794Z,101328.92
2019-01-03T00:40:31.933Z,101333.28
2019-01-03T00:43:28.194Z,101340.74
2019-01-03T00:46:22.873Z,101345.11
2019-01-03T00:49:10.345Z,101346.47
2019-01-03T00:52:03.548Z,101352.83
2019-01-03T00:55:03.615Z,101358.39
2019-01-03T00:58:09.340Z,101365.63
2019-01-03T01:01:16.878Z,101367.09
2019-01-03T01:04:07.082Z,101370.69
2019-01-03T01:06:53.015Z,101376.43
2019-01-03T01:09:31.257Z,101374.64
2019-01-03T01:12:22.068Z,101376.95
2019-01-03T01:15:18.281Z,101380.66
2019-01-03T01:18:05.712Z,101381.21
2019-01-03T01:20:51.765Z,101397.05
2019-01-03T01:23:38.208Z,101387.91
2019-01-03T01:26:24.402Z,101395.31
2019-01-03T01:29:30.042Z,101393.86
2019-01-03T01:32:16.264Z,101399.87
2019-01-03T01:35:09.631Z,101401.72
2019-01-03T01:37:55.783Z,101403.17
2019-01-03T01:40:49.235Z,101409.36
2019-01-03T01:43:38.038Z,101418.34
2019-01-03T01:46:24.310Z,101423.99
2019-01-03T01:49:03.875Z,101429.95
2019-01-03T01:51:50.166Z,101424.69
2019-01-03T01:54:40.789Z,101426.53
2019-01-03T01:57:28.492Z,101432.92
2019-01-03T02:00:34.181Z,101392.94
2019-01-03T02:03:30.653Z,101426.48
2019-01-03T02:06:11.419Z,101421.71
2019-01-03T02:08:57.288Z,101422.33
2019-01-03T02:11:42.087Z,101418.11
2019-01-03T02:14:48.891Z,101418.45
2019-01-03T02:17:33.028Z,101410.88
2019-01-03T02:20:32.783Z,101413.07
2019-01-03T02:23:35.215Z,101407.77
2019-01-03T02:26:21.495Z,101409.30
2019-01-03T02:29:17.920Z,101412.91
2019-01-03T02:32:03.896Z,101419.13
2019-01-03T02:35:07.041Z,101424.52
2019-01-03T02:38:06.327Z,101422.90
2019-01-03T02:40:56.500Z,101420.84
2019-01-03T02:43:43.920Z,101418.39
2019-01-03T02:46:30.061Z,101417.58
2019-01-03T02:49:17.480Z,101412.92
2019-01-03T02:52:16.878Z,101415.24
2019-01-03T02:55:16.953Z,101406.16
2019-01-03T02:58:02.363Z,101414.22
2019-01-03T03:00:48.633Z,101404.91
2019-01-03T03:03:25.444Z,101399.89
2019-01-03T03:06:15.770Z,101393.13
2019-01-03T03:08:55.907Z,101388.61
2019-01-03T03:12:01.439Z,101388.12
2019-01-03T03:14:47.383Z,101384.34
2019-01-03T03:17:52.888Z,101384.82
2019-01-03T03:20:38.899Z,101384.22
2019-01-03T03:23:41.675Z,101379.47
2019-01-03T03:26:48.512Z,101370.58
2019-01-03T03:29:37.527Z,101370.92
2019-01-03T03:32:24.283Z,101369.65
2019-01-03T03:35:12.169Z,101367.25
2019-01-03T03:38:05.593Z,101366.65
2019-01-03T03:40:51.713Z,101375.93
2019-01-03T03:43:39.046Z,101383.44
2019-01-03T03:49:23.816Z,101368.50
2019-01-03T03:52:26.539Z,101366.55
2019-01-03T03:55:16.884Z,101369.11
2019-01-03T03:58:16.398Z,101371.57
2019-01-03T04:04:16.205Z,101367.80
2019-01-03T04:07:09.381Z,101370.08
2019-01-03T04:09:55.571Z,101360.56
2019-01-03T04:12:55.145Z,101355.44
2019-01-03T04:15:42.508Z,101362.20
2019-01-03T04:18:28.464Z,101366.48
2019-01-03T04:21:25.588Z,101325.21
2019-01-03T04:24:21.700Z,101366.25
2019-01-03T04:27:24.536Z,101354.53
2019-01-03T04:30:14.596Z,101341.91
2019-01-03T04:33:00.558Z,101343.22
2019-01-03T04:35:51.150Z,101332.37
2019-01-03T04:38:41.316Z,101338.19
2019-01-03T04:41:20.335Z,101335.50
2019-01-03T04:44:18.702Z,101348.27
2019-01-03T04:47:04.642Z,101348.53
2019-01-03T04:50:01.424Z,101344.92
2019-01-03T04:53:01.001Z,101340.94
2019-01-03T04:55:34.337Z,101335.63
2019-01-03T04:58:20.024Z,101334.02
2019-01-03T05:01:14.213Z,101330.34
2019-01-03T05:04:19.865Z,101332.68
2019-01-03T05:07:06.077Z,101334.20
2019-01-03T05:09:55.640Z,101332.31
2019-01-03T05:12:38.063Z,101340.36
2019-01-03T05:15:15.038Z,101345.37
2019-01-03T05:18:17.213Z,101351.42
2019-01-03T05:21:19.856Z,101362.22
2019-01-03T05:24:38.915Z,101370.90
2019-01-03T05:27:44.255Z,101370.55
2019-01-03T05:30:30.379Z,101369.77
2019-01-03T05:33:21.247Z,101375.98
2019-01-03T05:36:07.512Z,101372.80
2019-01-03T05:38:58.380Z,101378.20
2019-01-03T05:41:45.093Z,101371.03
2019-01-03T05:44:50.625Z,101366.16
2019-01-03T05:47:47.074Z,101367.52
2019-01-03T05:50:43.442Z,101377.00
2019-01-03T05:53:29.302Z,101369.19
2019-01-03T05:56:32.000Z,101376.06
2019-01-03T05:59:18.035Z,101369.47
2019-01-03T06:02:04.321Z,101372.15
2019-01-03T06:04:52.023Z,101377.03
2019-01-03T06:07:38.031Z,101383.29
2019-01-03T06:10:29.003Z,101373.75
2019-01-03T06:13:25.968Z,101369.01
2019-01-03T06:16:15.324Z,101368.81
2019-01-03T06:19:01.366Z,101368.35
2019-01-03T06:21:46.225Z,101365.30
2019-01-03T06:24:38.912Z,101367.37
2019-01-03T06:27:35.314Z,101366.99
2019-01-03T06:30:32.188Z,101369.63
2019-01-03T06:33:18.118Z,101367.67
2019-01-03T06:36:11.785Z,101373.81
2019-01-03T06:39:00.357Z,101376.80
2019-01-03T06:41:55.361Z,101375.30
2019-01-03T06:45:06.079Z,101376.53
2019-01-03T06:47:51.762Z,101374.69
2019-01-03T06:50:45.404Z,101375.39
2019-01-03T06:53:38.839Z,101380.70
2019-01-03T06:56:29.241Z,101383.50
2019-01-03T06:59:15.276Z,101380.14
2019-01-03T07:02:11.847Z,101379.57
2019-01-03T07:05:09.136Z,101381.11
2019-01-03T07:07:57.379Z,101387.02
2019-01-03T07:10:54.556Z,101385.95
2019-01-03T07:14:10.151Z,101387.62
2019-01-03T07:16:56.167Z,101378.53
2019-01-03T07:19:58.820Z,101387.23
2019-01-03T07:22:44.902Z,101346.16
2019-01-03T07:25:44.528Z,101382.17
2019-01-03T07:28:30.542Z,101380.99
2019-01-03T07:31:26.767Z,101383.94
2019-01-03T07:34:09.335Z,101393.98
2019-01-03T07:37:02.829Z,101391.05
2019-01-03T07:39:48.976Z,101398.91
2019-01-03T07:42:54.721Z,101393.75
2019-01-03T07:45:42.138Z,101401.55
2019-01-03T07:48:39.568Z,101399.44
2019-01-03T07:51:44.988Z,101404.20
2019-01-03T07:54:30.708Z,101407.05
2019-01-03T07:57:21.151Z,101414.39
2019-01-03T08:00:06.947Z,101408.36
2019-01-03T08:03:02.425Z,101412.43
2019-01-03T08:05:55.602Z,101410.61
2019-01-03T08:08:41.868Z,101425.42
2019-01-03T08:11:34.791Z,101387.27
2019-01-03T08:14:34.200Z,101418.10
2019-01-03T08:17:24.371Z,101412.86
2019-01-03T08:20:29.881Z,101410.20
2019-01-03T08:23:15.918Z,101404.82
2019-01-03T08:26:05.939Z,101410.56
2019-01-03T08:29:02.263Z,101412.42
2019-01-03T08:31:44.254Z,101404.71
2019-01-03T08:34:22.561Z,101402.02
2019-01-03T08:37:22.260Z,101402.73
2019-01-03T08:40:09.132Z,101406.80
2019-01-03T08:43:05.328Z,101411.34
2019-01-03T08:46:04.770Z,101408.43
2019-01-03T08:49:00.643Z,101408.70
2019-01-03T08:51:47.572Z,101407.14
2019-01-03T08:54:41.383Z,101407.41
2019-01-03T08:57:27.432Z,101408.66
2019-01-03T09:00:14.529Z,101417.05
2019-01-03T09:02:59.314Z,101414.00
2019-01-03T09:05:52.649Z,101398.73
2019-01-03T09:08:42.793Z,101399.93
2019-01-03T09:11:36.416Z,101403.26
2019-01-03T09:14:57.637Z,101395.23
2019-01-03T09:17:45.132Z,101405.91
2019-01-03T09:20:27.010Z,101410.73
2019-01-03T09:23:26.898Z,101413.54
2019-01-03T09:26:23.400Z,101409.73
2019-01-03T09:29:18.579Z,101405.19
2019-01-03T09:32:12.039Z,101405.45
2019-01-03T09:34:53.578Z,101408.53
2019-01-03T09:37:40.606Z,101412.73
2019-01-03T09:40:22.413Z,101404.90
2019-01-03T09:43:08.839Z,101401.93
2019-01-03T09:45:43.966Z,101399.00
2019-01-03T09:48:06.398Z,101403.11
2019-01-03T09:50:34.177Z,101401.62
2019-01-03T09:53:01.977Z,101400.25
2019-01-03T09:55:29.807Z,101409.23
2019-01-03T09:57:57.670Z,101406.36
2019-01-03T10:00:25.537Z,101399.81
2019-01-03T10:02:53.364Z,101399.33
2019-01-03T10:05:21.138Z,101395.64
2019-01-03T10:07:49.004Z,101393.94
2019-01-03T10:10:16.769Z,101386.23
2019-01-03T10:13:04.035Z,101385.81
2019-01-03T10:15:31.874Z,101388.77
2019-01-03T10:17:59.746Z,101382.83
2019-01-03T10:20:27.511Z,101375.58
2019-01-03T10:22:55.306Z,101370.38
2019-01-03T10:25:23.143Z,101366.09
2019-01-03T10:27:50.989Z,101375.79
2019-01-03T10:30:18.764Z,101369.37
2019-01-03T10:32:46.628Z,101368.92
2019-01-03T10:35:14.493Z,101366.77
2019-01-03T10:37:42.283Z,101354.00
2019-01-03T10:40:10.120Z,101357.19
2019-01-03T10:42:43.131Z,101351.06
2019-01-03T10:45:14.657Z,101352.53
2019-01-03T10:47:42.496Z,101352.16
2019-01-03T10:50:12.052Z,101346.61
2019-01-03T10:52:40.687Z,101348.19
2019-01-03T10:55:08.495Z,101342.61
2019-01-03T10:57:36.277Z,101341.68
2019-01-03T11:00:05.879Z,101330.45
2019-01-03T11:02:33.736Z,101326.54
2019-01-03T11:05:01.550Z,101324.16
2019-01-03T11:07:29.362Z,101332.58
2019-01-03T11:10:01.494Z,101321.53
2019-01-03T11:12:32.676Z,101317.02
2019-01-03T11:15:07.206Z,101312.73
2019-01-03T11:17:38.058Z,101313.23
2019-01-03T11:20:08.298Z,101308.20
2019-01-03T11:22:42.642Z,101311.70
2019-01-03T11:30:32.768Z,101304.56
2019-01-03T11:43:40.096Z,101304.45
2019-01-03T11:46:08.906Z,101300.59
2019-01-03T11:48:36.707Z,101298.45
2019-01-03T11:51:04.528Z,101303.05
2019-01-03T11:53:32.381Z,101300.88
2019-01-03T11:56:00.309Z,101299.00
2019-01-03T11:58:28.143Z,101300.66
2019-01-03T12:00:55.944Z,101284.50
2019-01-03T12:03:23.803Z,101285.09
2019-01-03T12:05:51.650Z,101282.97
2019-01-03T12:08:19.537Z,101282.36
2019-01-03T12:10:47.330Z,101279.38
2019-01-03T12:13:15.211Z,101243.38
2019-01-03T12:15:42.996Z,101221.72
2019-01-03T12:18:10.818Z,101288.06
2019-01-03T12:20:38.640Z,101288.25
2019-01-03T12:23:06.475Z,101287.05
2019-01-03T12:25:34.312Z,101291.44
2019-01-03T12:28:02.151Z,101296.45
2019-01-03T12:30:29.982Z,101301.13
2019-01-03T12:32:57.770Z,101304.38
2019-01-03T12:35:35.219Z,101301.97
2019-01-03T12:38:22.452Z,101294.37
2019-01-03T12:40:50.305Z,101278.64
2019-01-03T12:43:18.113Z,101275.70
2019-01-03T12:45:46.150Z,101275.33
2019-01-03T12:48:14.003Z,101281.71
2019-01-03T12:50:41.772Z,101280.36
2019-01-03T12:53:09.630Z,101273.67
2019-01-03T12:55:46.811Z,101275.79
2019-01-03T12:58:22.407Z,101273.42
2019-01-03T13:00:50.336Z,101270.86
2019-01-03T13:03:18.153Z,101268.23
2019-01-03T13:05:46.011Z,101270.61
2019-01-03T13:08:15.083Z,101270.19
2019-01-03T13:10:46.807Z,101269.19
2019-01-03T13:13:18.163Z,101258.13
2019-01-03T13:15:47.338Z,101258.80
2019-01-03T13:18:19.046Z,101260.93
2019-01-03T13:20:49.010Z,101263.95
2019-01-03T13:23:18.227Z,101267.64
2019-01-03T13:25:47.979Z,101257.30
2019-01-03T13:28:15.818Z,101261.09
2019-01-03T13:30:43.579Z,101268.32
2019-01-03T13:33:18.950Z,101275.66
2019-01-03T13:35:46.327Z,101276.45
2019-01-03T13:38:14.157Z,101272.42
2019-01-03T13:40:41.925Z,101270.80
2019-01-03T13:43:10.376Z,101272.55
2019-01-03T13:45:38.737Z,101275.99
2019-01-03T13:48:07.165Z,101277.42
2019-01-03T13:50:35.443Z,101278.66
2019-01-03T13:53:03.775Z,101278.20
2019-01-03T13:55:35.633Z,101244.80
2019-01-03T13:58:20.905Z,101274.92
2019-01-03T14:00:49.440Z,101275.66
2019-01-03T14:03:17.863Z,101279.92
2019-01-03T14:05:46.311Z,101278.24
2019-01-03T14:08:14.396Z,101281.69
2019-01-03T14:10:42.300Z,101286.47
2019-01-03T14:13:10.208Z,101279.91
2019-01-03T14:15:38.307Z,101282.91
2019-01-03T14:18:08.809Z,101277.64
2019-01-03T14:20:36.642Z,101281.61
2019-01-03T14:23:10.647Z,101280.73
2019-01-03T14:25:42.639Z,101287.09
2019-01-03T14:28:13.492Z,101287.58
2019-01-03T14:30:44.491Z,101288.38
2019-01-03T14:33:20.260Z,101252.58
2019-01-03T14:35:49.582Z,101300.23
2019-01-03T14:38:18.337Z,101289.16
2019-01-03T14:40:47.753Z,101290.73
2019-01-03T14:43:19.720Z,101293.69
2019-01-03T14:45:48.451Z,101294.22
2019-01-03T14:48:17.594Z,101295.81
2019-01-03T14:50:45.445Z,101296.44
2019-01-03T14:53:13.510Z,101290.36
2019-01-03T14:55:41.266Z,101292.08
2019-01-03T14:58:09.361Z,101295.63
2019-01-03T15:00:37.170Z,101295.37
2019-01-03T15:03:05.251Z,101300.89
2019-01-03T15:05:33.105Z,101295.02
2019-01-03T15:08:00.925Z,101299.36
2019-01-03T15:10:32.063Z,101298.19
2019-01-03T15:12:59.876Z,101296.12
2019-01-03T15:15:27.715Z,101300.42
2019-01-03T15:17:56.637Z,101295.13
2019-01-03T15:20:29.479Z,101298.19
2019-01-03T15:22:57.346Z,101305.07
2019-01-03T15:25:25.209Z,101309.91
2019-01-03T15:27:53.037Z,101309.48
2019-01-03T15:30:20.905Z,101305.80
2019-01-03T15:32:48.832Z,101304.77
2019-01-03T15:35:16.770Z,101302.94
2019-01-03T15:37:44.687Z,101305.08
2019-01-03T15:40:12.542Z,101305.87
2019-01-03T15:42:40.382Z,101304.37
2019-01-03T15:45:08.513Z,101308.88
2019-01-03T15:47:36.338Z,101309.98
2019-01-03T15:50:04.854Z,101308.75
2019-01-03T15:52:32.768Z,101312.87
2019-01-03T15:55:00.598Z,101313.09
2019-01-03T15:57:28.420Z,101315.46
2019-01-03T15:59:57.295Z,101318.94
2019-01-03T16:02:25.865Z,101316.34
2019-01-03T16:04:53.950Z,101311.80
2019-01-03T16:07:21.808Z,101301.59
2019-01-03T16:09:49.675Z,101304.23
2019-01-03T16:12:17.518Z,101304.45
2019-01-03T16:14:45.573Z,101307.84
2019-01-03T16:17:13.439Z,101300.72
2019-01-03T16:19:41.294Z,101299.52
2019-01-03T16:22:09.154Z,101298.14
2019-01-03T16:24:42.241Z,101294.25
2019-01-03T16:27:10.165Z,101294.51
2019-01-03T16:29:38.049Z,101294.73
2019-01-03T16:32:06.059Z,101292.74
2019-01-03T16:34:35.106Z,101294.74
2019-01-03T16:37:03.042Z,101297.81
2019-01-03T16:39:30.852Z,101299.44
2019-01-03T16:41:58.775Z,101297.72
2019-01-03T16:44:26.991Z,101300.57
2019-01-03T16:46:54.887Z,101301.48
2019-01-03T16:49:22.700Z,101296.03
2019-01-03T16:51:50.594Z,101295.34
2019-01-03T16:54:18.699Z,101292.15
2019-01-03T16:56:46.595Z,101296.03
2019-01-03T16:59:14.428Z,101294.46
2019-01-03T17:01:42.281Z,101297.76
2019-01-03T17:04:10.096Z,101292.45
2019-01-03T17:06:38.609Z,101298.19
2019-01-03T17:09:06.519Z,101299.70
2019-01-03T17:11:41.905Z,101299.65
2019-01-03T17:14:15.219Z,101301.91
2019-01-03T17:16:43.025Z,101303.43
2019-01-03T17:19:10.800Z,101300.08
2019-01-03T17:21:38.664Z,101301.97
2019-01-03T17:24:06.585Z,101296.78
2019-01-03T17:26:34.445Z,101297.27
2019-01-03T17:29:02.279Z,101302.27
2019-01-03T17:31:30.145Z,101307.06
2019-01-03T17:34:04.726Z,101308.02
2019-01-03T17:36:32.538Z,101313.66
2019-01-03T17:39:06.286Z,101318.92
2019-01-03T17:41:34.189Z,101321.33
2019-01-03T17:44:02.286Z,101326.92
2019-01-03T17:46:30.082Z,101323.73
2019-01-03T17:48:57.913Z,101331.67
2019-01-03T17:51:25.765Z,101329.23
2019-01-03T17:53:53.898Z,101329.23
2019-01-03T17:56:41.143Z,101335.66
2019-01-03T17:59:11.038Z,101335.84
2019-01-03T18:01:38.886Z,101336.19
2019-01-03T18:04:06.699Z,101337.17
2019-01-03T18:06:53.957Z,101338.49
2019-01-03T18:09:21.869Z,101338.14
2019-01-03T18:11:49.676Z,101339.69
2019-01-03T18:14:18.172Z,101346.09
2019-01-03T18:16:45.966Z,101350.86
2019-01-03T18:19:13.853Z,101354.95
2019-01-03T18:21:41.644Z,101354.47
2019-01-03T18:24:24.625Z,101351.66
2019-01-03T18:26:52.494Z,101350.73
2019-01-03T18:29:20.335Z,101351.83
2019-01-03T18:31:48.220Z,101356.68
2019-01-03T18:34:16.053Z,101356.80
2019-01-03T18:36:46.240Z,101353.27
2019-01-03T18:39:14.053Z,101353.48
2019-01-03T18:41:41.871Z,101351.73
2019-01-03T18:44:10.235Z,101366.15
2019-01-03T18:46:38.031Z,101361.22
2019-01-03T18:49:06.056Z,101354.19
2019-01-03T18:51:33.928Z,101352.77
2019-01-03T18:54:04.347Z,101347.79
2019-01-03T18:56:36.419Z,101340.20
2019-01-03T18:59:06.327Z,101350.28
2019-01-03T19:01:35.002Z,101349.66
2019-01-03T19:04:10.367Z,101353.89
2019-01-03T19:06:41.931Z,101348.63
2019-01-03T19:09:11.310Z,101348.90
2019-01-03T19:11:39.491Z,101348.20
2019-01-03T19:14:13.274Z,101341.55
2019-01-03T19:16:53.633Z,101328.87
2019-01-03T19:19:29.522Z,101330.17
2019-01-03T19:21:57.655Z,101338.48
2019-01-03T19:24:26.436Z,101337.80
2019-01-03T19:26:56.444Z,101337.89
2019-01-03T19:29:46.090Z,101340.00
2019-01-03T19:32:18.925Z,101339.96
2019-01-03T19:35:17.587Z,101342.23
2019-01-03T19:37:52.367Z,101340.59
2019-01-03T19:40:20.354Z,101340.39
2019-01-03T19:42:50.011Z,101348.02
2019-01-03T19:45:17.866Z,101353.91
2019-01-03T19:47:45.791Z,101345.39
2019-01-03T19:50:17.939Z,101347.16
2019-01-03T19:52:50.395Z,101350.38
2019-01-03T19:55:18.287Z,101354.23
2019-01-03T19:57:46.185Z,101350.12
2019-01-03T20:00:15.478Z,101351.94
2019-01-03T20:02:46.769Z,101355.17
2019-01-03T20:05:22.913Z,101357.77
2019-01-03T20:07:58.820Z,101357.16
2019-01-03T20:10:26.731Z,101355.52
2019-01-03T20:12:54.958Z,101357.19
2019-01-03T20:15:32.668Z,101347.95
2019-01-03T20:18:00.849Z,101351.69
2019-01-03T20:20:29.008Z,101357.72
2019-01-03T20:22:56.882Z,101360.83
2019-01-03T20:25:26.785Z,101359.20
2019-01-03T20:27:55.225Z,101357.88
2019-01-03T20:30:23.400Z,101363.58
2019-01-03T20:32:51.701Z,101365.41
2019-01-03T20:35:20.251Z,101359.80
2019-01-03T20:37:51.032Z,101363.50
2019-01-03T20:40:23.383Z,101357.62
2019-01-03T20:42:51.971Z,101356.81
2019-01-03T20:45:21.156Z,101355.73
2019-01-03T20:47:50.110Z,101358.73
2019-01-03T20:50:21.129Z,101361.24
2019-01-03T20:52:49.721Z,101361.17
2019-01-03T20:55:23.185Z,101357.16
2019-01-03T20:58:14.044Z,101359.37
2019-01-03T21:00:42.311Z,101358.53
2019-01-03T21:03:19.580Z,101354.18
2019-01-03T21:05:51.992Z,101353.77
2019-01-03T21:08:22.139Z,101352.30
2019-01-03T21:10:50.567Z,101348.17
2019-01-03T21:13:21.082Z,101349.88
2019-01-03T21:15:49.581Z,101352.26
2019-01-03T21:18:17.868Z,101353.38
2019-01-03T21:20:46.369Z,101353.43
2019-01-03T21:23:14.769Z,101359.00
2019-01-03T21:25:48.285Z,101355.37
2019-01-03T21:28:16.543Z,101356.58
2019-01-03T21:30:44.759Z,101327.46
2019-01-03T21:33:13.093Z,101360.46
2019-01-03T21:35:41.488Z,101366.41
2019-01-03T21:38:09.724Z,101365.63
2019-01-03T21:40:39.306Z,101365.47
2019-01-03T21:43:07.642Z,101362.17
2019-01-03T21:45:46.033Z,101360.73
2019-01-03T21:48:15.543Z,101364.41
2019-01-03T21:50:49.316Z,101361.97
2019-01-03T21:53:17.800Z,101360.94
2019-01-03T21:55:46.127Z,101358.75
2019-01-03T21:58:14.417Z,101361.62
2019-01-03T22:00:42.960Z,101358.89
2019-01-03T22:03:12.160Z,101365.59
2019-01-03T22:05:40.570Z,101365.93
2019-01-03T22:08:08.762Z,101360.84
2019-01-03T22:10:37.067Z,101360.77
2019-01-03T22:13:05.401Z,101361.44
2019-01-03T22:15:34.342Z,101358.96
2019-01-03T22:18:02.728Z,101355.59
2019-01-03T22:20:30.961Z,101352.28
2019-01-03T22:22:59.246Z,101347.02
2019-01-03T22:25:30.537Z,101345.04
2019-01-03T22:27:59.037Z,101342.72
2019-01-03T22:30:27.297Z,101340.45
2019-01-03T22:32:55.746Z,101348.80
2019-01-03T22:35:24.029Z,101347.38
2019-01-03T22:37:52.371Z,101341.39
2019-01-03T22:40:20.488Z,101343.30
2019-01-03T22:42:48.613Z,101340.69
2019-01-03T22:45:16.391Z,101347.00
2019-01-03T22:47:44.228Z,101347.00
2019-01-03T22:50:12.023Z,101349.89
2019-01-03T22:52:39.949Z,101348.55
2019-01-03T22:55:08.209Z,101352.16
2019-01-03T22:57:36.047Z,101357.00
2019-01-03T23:00:19.814Z,101357.64
2019-01-03T23:02:47.690Z,101364.98
2019-01-03T23:05:15.785Z,101370.44
2019-01-03T23:07:43.723Z,101368.04
2019-01-03T23:10:11.584Z,101365.40
2019-01-03T23:12:59.197Z,101364.34
2019-01-03T23:15:27.226Z,101366.37
2019-01-03T23:17:55.159Z,101368.25
2019-01-03T23:20:22.984Z,101357.91
2019-01-03T23:22:50.928Z,101351.66
2019-01-03T23:25:18.872Z,101346.65
2019-01-03T23:27:46.762Z,101344.94
2019-01-03T23:30:14.674Z,101349.23
2019-01-03T23:32:42.597Z,101350.78
2019-01-03T23:35:10.556Z,101343.00
2019-01-03T23:37:38.402Z,101350.30
2019-01-03T23:40:06.316Z,101350.79
2019-01-03T23:42:34.136Z,101353.72
2019-01-03T23:45:22.476Z,101350.80
2019-01-03T23:47:55.492Z,101346.24
2019-01-03T23:50:32.914Z,101351.16
2019-01-03T23:53:00.763Z,101344.30
2019-01-03T23:55:56.041Z,101346.13
2019-01-03T23:58:23.802Z,101348.22
